sensor_id;sensor_type;location;lat;lon;timestamp;temperature;humidity
2409;DHT22;8463;48.094;7.970;2023-06-19T00:01:12;21.40;1.00
2409;DHT22;8463;48.094;7.970;2023-06-19T00:03:38;21.80;1.00
2409;DHT22;8463;48.094;7.970;2023-06-19T00:06:06;21.80;1.00
2409;DHT22;8463;48.094;7.970;2023-06-19T00:08:32;21.40;1.00
2409;DHT22;8463;48.094;7.970;2023-06-19T00:10:57;21.20;1.00
2409;DHT22;8463;48.094;7.970;2023-06-19T00:13:23;21.00;1.00
2409;DHT22;8463;48.094;7.970;2023-06-19T00:15:49;21.00;1.00
2409;DHT22;8463;48.094;7.970;2023-06-19T00:18:14;20.80;1.00
2409;DHT22;8463;48.094;7.970;2023-06-19T00:20:41;20.90;1.00
2409;DHT22;8463;48.094;7.970;2023-06-19T00:23:10;20.90;1.00
2409;DHT22;8463;48.094;7.970;2023-06-19T00:25:41;20.70;1.00
2409;DHT22;8463;48.094;7.970;2023-06-19T00:28:08;20.70;1.00
2409;DHT22;8463;48.094;7.970;2023-06-19T00:30:39;20.50;1.00
2409;DHT22;8463;48.094;7.970;2023-06-19T00:33:05;20.40;1.00
2409;DHT22;8463;48.094;7.970;2023-06-19T00:35:31;20.40;1.00
2409;DHT22;8463;48.094;7.970;2023-06-19T00:37:56;20.50;1.00
2409;DHT22;8463;48.094;7.970;2023-06-19T00:40:30;20.60;1.00
2409;DHT22;8463;48.094;7.970;2023-06-19T00:42:56;20.80;1.00
2409;DHT22;8463;48.094;7.970;2023-06-19T00:45:22;20.90;1.00
2409;DHT22;8463;48.094;7.970;2023-06-19T00:47:50;21.00;1.00
2409;DHT22;8463;48.094;7.970;2023-06-19T00:50:16;21.00;1.00
2409;DHT22;8463;48.094;7.970;2023-06-19T00:52:43;20.90;1.00
2409;DHT22;8463;48.094;7.970;2023-06-19T00:55:09;21.00;1.00
2409;DHT22;8463;48.094;7.970;2023-06-19T00:57:35;21.20;1.00
2409;DHT22;8463;48.094;7.970;2023-06-19T01:00:02;21.30;1.00
2409;DHT22;8463;48.094;7.970;2023-06-19T01:02:32;21.30;1.00
2409;DHT22;8463;48.094;7.970;2023-06-19T01:04:58;21.30;1.00
2409;DHT22;8463;48.094;7.970;2023-06-19T01:10:12;21.30;1.00
2409;DHT22;8463;48.094;7.970;2023-06-19T01:12:44;21.30;1.00
2409;DHT22;8463;48.094;7.970;2023-06-19T01:15:16;21.40;1.00
2409;DHT22;8463;48.094;7.970;2023-06-19T01:17:42;21.20;1.00
2409;DHT22;8463;48.094;7.970;2023-06-19T01:20:08;20.60;1.00
2409;DHT22;8463;48.094;7.970;2023-06-19T01:22:36;20.60;1.00
2409;DHT22;8463;48.094;7.970;2023-06-19T01:25:02;20.70;1.00
2409;DHT22;8463;48.094;7.970;2023-06-19T01:27:31;20.80;1.00
2409;DHT22;8463;48.094;7.970;2023-06-19T01:29:58;21.00;1.00
2409;DHT22;8463;48.094;7.970;2023-06-19T01:32:36;21.10;1.00
2409;DHT22;8463;48.094;7.970;2023-06-19T01:35:08;21.10;1.00
2409;DHT22;8463;48.094;7.970;2023-06-19T01:37:36;21.10;1.00
2409;DHT22;8463;48.094;7.970;2023-06-19T01:40:03;21.20;1.00
2409;DHT22;8463;48.094;7.970;2023-06-19T01:42:31;21.20;1.00
2409;DHT22;8463;48.094;7.970;2023-06-19T01:45:00;21.20;1.00
2409;DHT22;8463;48.094;7.970;2023-06-19T01:47:28;20.90;1.00
2409;DHT22;8463;48.094;7.970;2023-06-19T01:49:54;20.90;1.00
2409;DHT22;8463;48.094;7.970;2023-06-19T01:52:20;20.60;1.00
2409;DHT22;8463;48.094;7.970;2023-06-19T01:54:45;20.30;1.00
2409;DHT22;8463;48.094;7.970;2023-06-19T01:57:11;20.10;1.00
2409;DHT22;8463;48.094;7.970;2023-06-19T01:59:37;20.20;1.00
2409;DHT22;8463;48.094;7.970;2023-06-19T02:02:03;20.10;1.00
2409;DHT22;8463;48.094;7.970;2023-06-19T02:04:29;19.40;1.00
2409;DHT22;8463;48.094;7.970;2023-06-19T02:06:55;19.40;1.00
2409;DHT22;8463;48.094;7.970;2023-06-19T02:09:21;19.40;1.00
2409;DHT22;8463;48.094;7.970;2023-06-19T02:11:46;19.30;1.00
2409;DHT22;8463;48.094;7.970;2023-06-19T02:14:12;19.50;1.00
2409;DHT22;8463;48.094;7.970;2023-06-19T02:16:40;19.70;1.00
2409;DHT22;8463;48.094;7.970;2023-06-19T02:19:10;19.80;1.00
2409;DHT22;8463;48.094;7.970;2023-06-19T02:21:36;19.90;1.00
2409;DHT22;8463;48.094;7.970;2023-06-19T02:24:02;20.00;1.00
2409;DHT22;8463;48.094;7.970;2023-06-19T02:26:28;20.00;1.00
2409;DHT22;8463;48.094;7.970;2023-06-19T02:28:55;20.00;1.00
2409;DHT22;8463;48.094;7.970;2023-06-19T02:31:22;20.10;1.00
2409;DHT22;8463;48.094;7.970;2023-06-19T02:33:50;20.20;1.00
2409;DHT22;8463;48.094;7.970;2023-06-19T02:36:16;20.30;1.00
2409;DHT22;8463;48.094;7.970;2023-06-19T02:38:48;20.40;1.00
2409;DHT22;8463;48.094;7.970;2023-06-19T02:41:16;20.50;1.00
2409;DHT22;8463;48.094;7.970;2023-06-19T02:43:44;20.60;1.00
2409;DHT22;8463;48.094;7.970;2023-06-19T02:46:12;20.60;1.00
2409;DHT22;8463;48.094;7.970;2023-06-19T02:48:38;20.60;1.00
2409;DHT22;8463;48.094;7.970;2023-06-19T02:51:03;20.70;1.00
2409;DHT22;8463;48.094;7.970;2023-06-19T02:53:29;20.60;1.00
2409;DHT22;8463;48.094;7.970;2023-06-19T02:55:54;20.50;1.00
2409;DHT22;8463;48.094;7.970;2023-06-19T02:58:20;20.30;1.00
2409;DHT22;8463;48.094;7.970;2023-06-19T03:00:46;19.90;1.00
2409;DHT22;8463;48.094;7.970;2023-06-19T03:03:12;19.90;1.00
2409;DHT22;8463;48.094;7.970;2023-06-19T03:05:38;19.90;1.00
2409;DHT22;8463;48.094;7.970;2023-06-19T03:08:04;19.80;1.00
2409;DHT22;8463;48.094;7.970;2023-06-19T03:10:30;19.90;1.00
2409;DHT22;8463;48.094;7.970;2023-06-19T03:12:56;19.90;1.00
2409;DHT22;8463;48.094;7.970;2023-06-19T03:15:24;20.00;1.00
2409;DHT22;8463;48.094;7.970;2023-06-19T03:17:50;20.00;1.00
2409;DHT22;8463;48.094;7.970;2023-06-19T03:20:17;20.10;1.00
2409;DHT22;8463;48.094;7.970;2023-06-19T03:22:43;20.20;1.00
2409;DHT22;8463;48.094;7.970;2023-06-19T03:25:11;20.00;1.00
2409;DHT22;8463;48.094;7.970;2023-06-19T03:27:37;19.90;1.00
2409;DHT22;8463;48.094;7.970;2023-06-19T03:30:04;19.90;1.00
2409;DHT22;8463;48.094;7.970;2023-06-19T03:32:33;19.80;1.00
2409;DHT22;8463;48.094;7.970;2023-06-19T03:35:00;19.80;1.00
2409;DHT22;8463;48.094;7.970;2023-06-19T03:37:26;20.00;1.00
2409;DHT22;8463;48.094;7.970;2023-06-19T03:39:52;20.10;1.00
2409;DHT22;8463;48.094;7.970;2023-06-19T03:42:17;20.20;1.00
2409;DHT22;8463;48.094;7.970;2023-06-19T03:44:43;20.30;1.00
2409;DHT22;8463;48.094;7.970;2023-06-19T03:47:09;20.30;1.00
2409;DHT22;8463;48.094;7.970;2023-06-19T03:49:34;20.20;1.00
2409;DHT22;8463;48.094;7.970;2023-06-19T03:52:00;20.30;1.00
2409;DHT22;8463;48.094;7.970;2023-06-19T03:54:26;20.30;1.00
2409;DHT22;8463;48.094;7.970;2023-06-19T03:56:52;20.30;1.00
2409;DHT22;8463;48.094;7.970;2023-06-19T03:59:18;20.20;1.00
2409;DHT22;8463;48.094;7.970;2023-06-19T04:01:43;20.20;1.00
2409;DHT22;8463;48.094;7.970;2023-06-19T04:04:09;20.30;1.00
2409;DHT22;8463;48.094;7.970;2023-06-19T04:06:35;20.30;1.00
2409;DHT22;8463;48.094;7.970;2023-06-19T04:09:00;20.30;1.00
2409;DHT22;8463;48.094;7.970;2023-06-19T04:11:26;20.40;1.00
2409;DHT22;8463;48.094;7.970;2023-06-19T04:13:51;20.40;1.00
2409;DHT22;8463;48.094;7.970;2023-06-19T04:16:17;20.40;1.00
2409;DHT22;8463;48.094;7.970;2023-06-19T04:18:43;20.50;1.00
2409;DHT22;8463;48.094;7.970;2023-06-19T04:21:08;20.70;1.00
2409;DHT22;8463;48.094;7.970;2023-06-19T04:23:34;20.70;1.00
2409;DHT22;8463;48.094;7.970;2023-06-19T04:26:00;20.60;1.00
2409;DHT22;8463;48.094;7.970;2023-06-19T04:28:25;20.50;1.00
2409;DHT22;8463;48.094;7.970;2023-06-19T04:30:51;20.30;1.00
2409;DHT22;8463;48.094;7.970;2023-06-19T04:33:27;20.10;1.00
2409;DHT22;8463;48.094;7.970;2023-06-19T04:35:52;19.90;1.00
2409;DHT22;8463;48.094;7.970;2023-06-19T04:38:18;19.80;1.00
2409;DHT22;8463;48.094;7.970;2023-06-19T04:40:43;19.70;1.00
2409;DHT22;8463;48.094;7.970;2023-06-19T04:43:09;19.80;1.00
2409;DHT22;8463;48.094;7.970;2023-06-19T04:45:35;19.80;1.00
2409;DHT22;8463;48.094;7.970;2023-06-19T04:48:01;19.70;1.00
2409;DHT22;8463;48.094;7.970;2023-06-19T04:50:28;19.70;1.00
2409;DHT22;8463;48.094;7.970;2023-06-19T04:52:54;19.90;1.00
2409;DHT22;8463;48.094;7.970;2023-06-19T04:55:19;20.00;1.00
2409;DHT22;8463;48.094;7.970;2023-06-19T04:57:45;20.10;1.00
2409;DHT22;8463;48.094;7.970;2023-06-19T05:00:11;20.10;1.00
2409;DHT22;8463;48.094;7.970;2023-06-19T05:02:38;20.20;1.00
2409;DHT22;8463;48.094;7.970;2023-06-19T05:05:04;20.30;1.00
2409;DHT22;8463;48.094;7.970;2023-06-19T05:07:30;20.40;1.00
2409;DHT22;8463;48.094;7.970;2023-06-19T05:09:56;20.50;1.00
2409;DHT22;8463;48.094;7.970;2023-06-19T05:12:22;20.60;1.00
2409;DHT22;8463;48.094;7.970;2023-06-19T05:14:48;20.60;1.00
2409;DHT22;8463;48.094;7.970;2023-06-19T05:17:13;20.70;1.00
2409;DHT22;8463;48.094;7.970;2023-06-19T05:19:39;20.70;1.00
2409;DHT22;8463;48.094;7.970;2023-06-19T05:22:05;20.80;1.00
2409;DHT22;8463;48.094;7.970;2023-06-19T05:24:32;20.80;1.00
2409;DHT22;8463;48.094;7.970;2023-06-19T05:26:58;20.80;1.00
2409;DHT22;8463;48.094;7.970;2023-06-19T05:29:23;20.80;1.00
2409;DHT22;8463;48.094;7.970;2023-06-19T05:31:49;20.80;1.00
2409;DHT22;8463;48.094;7.970;2023-06-19T05:34:15;20.80;1.00
2409;DHT22;8463;48.094;7.970;2023-06-19T05:36:40;20.80;1.00
2409;DHT22;8463;48.094;7.970;2023-06-19T05:39:06;20.80;1.00
2409;DHT22;8463;48.094;7.970;2023-06-19T05:41:32;20.80;1.00
2409;DHT22;8463;48.094;7.970;2023-06-19T05:43:58;20.70;1.00
2409;DHT22;8463;48.094;7.970;2023-06-19T05:46:24;20.80;1.00
2409;DHT22;8463;48.094;7.970;2023-06-19T05:48:51;20.90;1.00
2409;DHT22;8463;48.094;7.970;2023-06-19T05:51:17;21.00;1.00
2409;DHT22;8463;48.094;7.970;2023-06-19T05:53:43;21.00;1.00
2409;DHT22;8463;48.094;7.970;2023-06-19T05:56:09;21.10;1.00
2409;DHT22;8463;48.094;7.970;2023-06-19T05:58:34;21.20;1.00
2409;DHT22;8463;48.094;7.970;2023-06-19T06:01:00;21.10;1.00
2409;DHT22;8463;48.094;7.970;2023-06-19T06:03:26;21.20;1.00
2409;DHT22;8463;48.094;7.970;2023-06-19T06:05:53;21.20;1.00
2409;DHT22;8463;48.094;7.970;2023-06-19T06:08:18;21.20;1.00
2409;DHT22;8463;48.094;7.970;2023-06-19T06:10:44;21.40;1.00
2409;DHT22;8463;48.094;7.970;2023-06-19T06:13:10;21.40;1.00
2409;DHT22;8463;48.094;7.970;2023-06-19T06:15:35;21.40;1.00
2409;DHT22;8463;48.094;7.970;2023-06-19T06:18:01;21.50;1.00
2409;DHT22;8463;48.094;7.970;2023-06-19T06:20:28;21.40;1.00
2409;DHT22;8463;48.094;7.970;2023-06-19T06:22:54;21.40;1.00
2409;DHT22;8463;48.094;7.970;2023-06-19T06:25:20;21.80;1.00
2409;DHT22;8463;48.094;7.970;2023-06-19T06:27:46;22.10;1.00
2409;DHT22;8463;48.094;7.970;2023-06-19T06:30:12;22.20;1.00
2409;DHT22;8463;48.094;7.970;2023-06-19T06:32:38;22.30;1.00
2409;DHT22;8463;48.094;7.970;2023-06-19T06:35:04;22.40;1.00
2409;DHT22;8463;48.094;7.970;2023-06-19T06:37:30;22.60;1.00
2409;DHT22;8463;48.094;7.970;2023-06-19T06:39:55;22.80;1.00
2409;DHT22;8463;48.094;7.970;2023-06-19T06:42:21;23.10;1.00
2409;DHT22;8463;48.094;7.970;2023-06-19T06:44:47;23.30;1.00
2409;DHT22;8463;48.094;7.970;2023-06-19T06:47:12;23.50;1.00
2409;DHT22;8463;48.094;7.970;2023-06-19T06:49:38;23.40;1.00
2409;DHT22;8463;48.094;7.970;2023-06-19T06:52:04;23.40;1.00
2409;DHT22;8463;48.094;7.970;2023-06-19T06:54:30;23.40;1.00
2409;DHT22;8463;48.094;7.970;2023-06-19T06:56:56;23.50;1.00
2409;DHT22;8463;48.094;7.970;2023-06-19T06:59:24;23.60;1.00
2409;DHT22;8463;48.094;7.970;2023-06-19T07:01:50;23.50;1.00
2409;DHT22;8463;48.094;7.970;2023-06-19T07:04:16;23.70;1.00
2409;DHT22;8463;48.094;7.970;2023-06-19T07:06:41;24.00;1.00
2409;DHT22;8463;48.094;7.970;2023-06-19T07:09:07;24.30;1.00
2409;DHT22;8463;48.094;7.970;2023-06-19T07:11:33;24.60;1.00
2409;DHT22;8463;48.094;7.970;2023-06-19T07:13:58;24.90;1.00
2409;DHT22;8463;48.094;7.970;2023-06-19T07:16:24;25.30;1.00
2409;DHT22;8463;48.094;7.970;2023-06-19T07:18:50;25.50;1.00
2409;DHT22;8463;48.094;7.970;2023-06-19T07:21:18;25.80;1.00
2409;DHT22;8463;48.094;7.970;2023-06-19T07:23:45;26.00;1.00
2409;DHT22;8463;48.094;7.970;2023-06-19T07:26:13;26.10;1.00
2409;DHT22;8463;48.094;7.970;2023-06-19T07:28:39;26.10;1.00
2409;DHT22;8463;48.094;7.970;2023-06-19T07:31:05;26.30;1.00
2409;DHT22;8463;48.094;7.970;2023-06-19T07:33:31;26.60;1.00
2409;DHT22;8463;48.094;7.970;2023-06-19T07:35:57;26.80;1.00
2409;DHT22;8463;48.094;7.970;2023-06-19T07:38:22;26.80;1.00
2409;DHT22;8463;48.094;7.970;2023-06-19T07:40:48;26.80;1.00
2409;DHT22;8463;48.094;7.970;2023-06-19T07:43:17;26.80;1.00
2409;DHT22;8463;48.094;7.970;2023-06-19T07:45:42;26.80;1.00
2409;DHT22;8463;48.094;7.970;2023-06-19T07:48:08;27.00;1.00
2409;DHT22;8463;48.094;7.970;2023-06-19T07:50:34;27.00;1.00
2409;DHT22;8463;48.094;7.970;2023-06-19T07:52:59;26.60;1.00
2409;DHT22;8463;48.094;7.970;2023-06-19T07:55:25;26.00;1.00
2409;DHT22;8463;48.094;7.970;2023-06-19T07:57:51;25.40;1.00
2409;DHT22;8463;48.094;7.970;2023-06-19T08:00:18;25.10;1.00
2409;DHT22;8463;48.094;7.970;2023-06-19T08:02:43;24.20;1.00
2409;DHT22;8463;48.094;7.970;2023-06-19T08:05:10;24.10;1.00
2409;DHT22;8463;48.094;7.970;2023-06-19T08:07:36;24.10;1.00
2409;DHT22;8463;48.094;7.970;2023-06-19T08:10:02;24.30;1.00
2409;DHT22;8463;48.094;7.970;2023-06-19T08:12:29;24.50;1.00
2409;DHT22;8463;48.094;7.970;2023-06-19T08:14:55;24.90;1.00
2409;DHT22;8463;48.094;7.970;2023-06-19T08:17:21;25.30;1.00
2409;DHT22;8463;48.094;7.970;2023-06-19T08:19:47;25.60;1.00
2409;DHT22;8463;48.094;7.970;2023-06-19T08:22:13;26.00;1.00
2409;DHT22;8463;48.094;7.970;2023-06-19T08:24:39;26.10;1.00
2409;DHT22;8463;48.094;7.970;2023-06-19T08:27:06;26.00;1.00
2409;DHT22;8463;48.094;7.970;2023-06-19T08:29:32;26.10;1.00
2409;DHT22;8463;48.094;7.970;2023-06-19T08:32:00;26.10;1.00
2409;DHT22;8463;48.094;7.970;2023-06-19T08:34:27;25.90;1.00
2409;DHT22;8463;48.094;7.970;2023-06-19T08:36:53;25.70;1.00
2409;DHT22;8463;48.094;7.970;2023-06-19T08:39:18;25.70;1.00
2409;DHT22;8463;48.094;7.970;2023-06-19T08:41:45;25.80;1.00
2409;DHT22;8463;48.094;7.970;2023-06-19T08:44:11;25.80;1.00
2409;DHT22;8463;48.094;7.970;2023-06-19T08:46:37;25.80;1.00
2409;DHT22;8463;48.094;7.970;2023-06-19T08:49:03;25.90;1.00
2409;DHT22;8463;48.094;7.970;2023-06-19T08:51:32;25.90;1.00
2409;DHT22;8463;48.094;7.970;2023-06-19T08:54:03;25.80;1.00
2409;DHT22;8463;48.094;7.970;2023-06-19T08:56:33;25.80;1.00
2409;DHT22;8463;48.094;7.970;2023-06-19T08:59:13;25.90;1.00
2409;DHT22;8463;48.094;7.970;2023-06-19T09:01:39;25.90;1.00
2409;DHT22;8463;48.094;7.970;2023-06-19T09:04:13;26.20;1.00
2409;DHT22;8463;48.094;7.970;2023-06-19T09:06:55;26.30;1.00
2409;DHT22;8463;48.094;7.970;2023-06-19T09:09:22;26.30;1.00
2409;DHT22;8463;48.094;7.970;2023-06-19T09:12:04;26.30;1.00
2409;DHT22;8463;48.094;7.970;2023-06-19T09:14:37;26.50;1.00
2409;DHT22;8463;48.094;7.970;2023-06-19T09:17:05;26.70;1.00
2409;DHT22;8463;48.094;7.970;2023-06-19T09:19:31;26.70;1.00
2409;DHT22;8463;48.094;7.970;2023-06-19T09:22:04;26.60;1.00
2409;DHT22;8463;48.094;7.970;2023-06-19T09:24:38;26.70;1.00
2409;DHT22;8463;48.094;7.970;2023-06-19T09:29:36;26.70;1.00
2409;DHT22;8463;48.094;7.970;2023-06-19T09:32:16;26.60;1.00
2409;DHT22;8463;48.094;7.970;2023-06-19T09:34:41;26.60;1.00
2409;DHT22;8463;48.094;7.970;2023-06-19T09:37:08;26.60;1.00
2409;DHT22;8463;48.094;7.970;2023-06-19T09:39:37;26.70;1.00
2409;DHT22;8463;48.094;7.970;2023-06-19T09:42:03;26.80;1.00
2409;DHT22;8463;48.094;7.970;2023-06-19T09:44:39;27.00;1.00
2409;DHT22;8463;48.094;7.970;2023-06-19T09:47:09;27.20;1.00
2409;DHT22;8463;48.094;7.970;2023-06-19T09:49:42;27.50;1.00
2409;DHT22;8463;48.094;7.970;2023-06-19T09:52:11;27.50;1.00
2409;DHT22;8463;48.094;7.970;2023-06-19T09:54:37;27.40;1.00
2409;DHT22;8463;48.094;7.970;2023-06-19T09:57:03;27.50;1.00
2409;DHT22;8463;48.094;7.970;2023-06-19T09:59:29;27.50;1.00
2409;DHT22;8463;48.094;7.970;2023-06-19T10:01:56;27.70;1.00
2409;DHT22;8463;48.094;7.970;2023-06-19T10:04:22;27.80;1.00
2409;DHT22;8463;48.094;7.970;2023-06-19T10:06:47;27.90;1.00
2409;DHT22;8463;48.094;7.970;2023-06-19T10:09:15;28.10;1.00
2409;DHT22;8463;48.094;7.970;2023-06-19T10:11:51;28.50;1.00
2409;DHT22;8463;48.094;7.970;2023-06-19T10:14:21;28.40;1.00
2409;DHT22;8463;48.094;7.970;2023-06-19T10:16:46;28.10;1.00
2409;DHT22;8463;48.094;7.970;2023-06-19T10:19:16;28.00;1.00
2409;DHT22;8463;48.094;7.970;2023-06-19T10:21:52;28.00;1.00
2409;DHT22;8463;48.094;7.970;2023-06-19T10:24:19;27.90;1.00
2409;DHT22;8463;48.094;7.970;2023-06-19T10:27:01;27.90;1.00
2409;DHT22;8463;48.094;7.970;2023-06-19T10:29:37;27.90;1.00
2409;DHT22;8463;48.094;7.970;2023-06-19T10:32:03;28.20;1.00
2409;DHT22;8463;48.094;7.970;2023-06-19T10:34:37;28.10;1.00
2409;DHT22;8463;48.094;7.970;2023-06-19T10:37:03;28.20;1.00
2409;DHT22;8463;48.094;7.970;2023-06-19T10:39:30;28.40;1.00
2409;DHT22;8463;48.094;7.970;2023-06-19T10:41:56;29.00;1.00
2409;DHT22;8463;48.094;7.970;2023-06-19T10:44:23;29.30;1.00
2409;DHT22;8463;48.094;7.970;2023-06-19T10:46:52;29.00;1.00
2409;DHT22;8463;48.094;7.970;2023-06-19T10:49:21;29.10;1.00
2409;DHT22;8463;48.094;7.970;2023-06-19T10:51:48;29.20;1.00
2409;DHT22;8463;48.094;7.970;2023-06-19T10:54:14;29.40;1.00
2409;DHT22;8463;48.094;7.970;2023-06-19T10:56:40;29.60;1.00
2409;DHT22;8463;48.094;7.970;2023-06-19T10:59:07;29.60;1.00
2409;DHT22;8463;48.094;7.970;2023-06-19T11:01:37;29.30;1.00
2409;DHT22;8463;48.094;7.970;2023-06-19T11:04:07;29.40;1.00
2409;DHT22;8463;48.094;7.970;2023-06-19T11:06:33;29.50;1.00
2409;DHT22;8463;48.094;7.970;2023-06-19T11:08:59;29.40;1.00
2409;DHT22;8463;48.094;7.970;2023-06-19T11:11:39;29.50;1.00
2409;DHT22;8463;48.094;7.970;2023-06-19T11:14:09;29.50;1.00
2409;DHT22;8463;48.094;7.970;2023-06-19T11:16:37;29.70;1.00
2409;DHT22;8463;48.094;7.970;2023-06-19T11:19:03;29.60;1.00
2409;DHT22;8463;48.094;7.970;2023-06-19T11:21:36;29.20;1.00
2409;DHT22;8463;48.094;7.970;2023-06-19T11:24:11;29.10;1.00
2409;DHT22;8463;48.094;7.970;2023-06-19T11:26:45;28.90;1.00
2409;DHT22;8463;48.094;7.970;2023-06-19T11:31:44;29.60;1.00
2409;DHT22;8463;48.094;7.970;2023-06-19T11:34:11;29.80;1.00
2409;DHT22;8463;48.094;7.970;2023-06-19T11:36:37;30.10;1.00
2409;DHT22;8463;48.094;7.970;2023-06-19T11:39:03;30.00;1.00
2409;DHT22;8463;48.094;7.970;2023-06-19T11:41:32;30.00;1.00
2409;DHT22;8463;48.094;7.970;2023-06-19T11:43:59;30.50;1.00
2409;DHT22;8463;48.094;7.970;2023-06-19T11:46:30;30.50;1.00
2409;DHT22;8463;48.094;7.970;2023-06-19T11:49:15;30.20;1.00
2409;DHT22;8463;48.094;7.970;2023-06-19T11:51:44;29.60;1.00
2409;DHT22;8463;48.094;7.970;2023-06-19T11:54:14;29.60;1.00
2409;DHT22;8463;48.094;7.970;2023-06-19T11:56:43;29.60;1.00
2409;DHT22;8463;48.094;7.970;2023-06-19T11:59:09;29.30;1.00
2409;DHT22;8463;48.094;7.970;2023-06-19T12:01:36;29.00;1.00
2409;DHT22;8463;48.094;7.970;2023-06-19T12:04:03;29.00;1.00
2409;DHT22;8463;48.094;7.970;2023-06-19T12:06:29;28.90;1.00
2409;DHT22;8463;48.094;7.970;2023-06-19T12:08:56;28.90;1.00
2409;DHT22;8463;48.094;7.970;2023-06-19T12:11:22;29.10;1.00
2409;DHT22;8463;48.094;7.970;2023-06-19T12:13:48;29.10;1.00
2409;DHT22;8463;48.094;7.970;2023-06-19T12:16:14;29.50;1.00
2409;DHT22;8463;48.094;7.970;2023-06-19T12:18:40;30.00;1.00
2409;DHT22;8463;48.094;7.970;2023-06-19T12:21:06;30.00;1.00
2409;DHT22;8463;48.094;7.970;2023-06-19T12:23:32;29.70;1.00
2409;DHT22;8463;48.094;7.970;2023-06-19T12:25:58;30.70;1.00
2409;DHT22;8463;48.094;7.970;2023-06-19T12:28:23;29.90;1.00
2409;DHT22;8463;48.094;7.970;2023-06-19T12:30:50;30.10;1.00
2409;DHT22;8463;48.094;7.970;2023-06-19T12:33:18;29.40;1.00
2409;DHT22;8463;48.094;7.970;2023-06-19T12:35:44;29.30;1.00
2409;DHT22;8463;48.094;7.970;2023-06-19T12:38:10;29.20;1.00
2409;DHT22;8463;48.094;7.970;2023-06-19T12:40:39;29.30;1.00
2409;DHT22;8463;48.094;7.970;2023-06-19T12:43:06;29.50;1.00
2409;DHT22;8463;48.094;7.970;2023-06-19T12:45:32;29.70;1.00
2409;DHT22;8463;48.094;7.970;2023-06-19T12:47:58;29.70;1.00
2409;DHT22;8463;48.094;7.970;2023-06-19T12:50:23;29.90;1.00
2409;DHT22;8463;48.094;7.970;2023-06-19T12:52:50;29.80;1.00
2409;DHT22;8463;48.094;7.970;2023-06-19T12:55:16;29.60;1.00
2409;DHT22;8463;48.094;7.970;2023-06-19T12:57:42;29.50;1.00
2409;DHT22;8463;48.094;7.970;2023-06-19T13:00:12;29.60;1.00
2409;DHT22;8463;48.094;7.970;2023-06-19T13:02:39;29.40;1.00
2409;DHT22;8463;48.094;7.970;2023-06-19T13:05:08;29.20;1.00
2409;DHT22;8463;48.094;7.970;2023-06-19T13:07:34;29.40;1.00
2409;DHT22;8463;48.094;7.970;2023-06-19T13:09:59;29.50;1.00
2409;DHT22;8463;48.094;7.970;2023-06-19T13:12:25;29.40;1.00
2409;DHT22;8463;48.094;7.970;2023-06-19T13:14:51;29.00;1.00
2409;DHT22;8463;48.094;7.970;2023-06-19T13:17:17;28.70;1.00
2409;DHT22;8463;48.094;7.970;2023-06-19T13:19:42;28.80;1.00
2409;DHT22;8463;48.094;7.970;2023-06-19T13:22:08;29.00;1.00
2409;DHT22;8463;48.094;7.970;2023-06-19T13:24:34;29.00;1.00
2409;DHT22;8463;48.094;7.970;2023-06-19T13:27:00;28.90;1.00
2409;DHT22;8463;48.094;7.970;2023-06-19T13:29:25;28.90;1.00
2409;DHT22;8463;48.094;7.970;2023-06-19T13:31:51;28.80;1.00
2409;DHT22;8463;48.094;7.970;2023-06-19T13:34:17;28.90;1.00
2409;DHT22;8463;48.094;7.970;2023-06-19T13:36:44;28.90;1.00
2409;DHT22;8463;48.094;7.970;2023-06-19T13:39:09;28.80;1.00
2409;DHT22;8463;48.094;7.970;2023-06-19T13:41:37;28.90;1.00
2409;DHT22;8463;48.094;7.970;2023-06-19T13:44:03;28.90;1.00
2409;DHT22;8463;48.094;7.970;2023-06-19T13:46:29;28.90;1.00
2409;DHT22;8463;48.094;7.970;2023-06-19T13:48:57;28.90;1.00
2409;DHT22;8463;48.094;7.970;2023-06-19T13:51:23;28.60;1.00
2409;DHT22;8463;48.094;7.970;2023-06-19T13:53:50;28.60;1.00
2409;DHT22;8463;48.094;7.970;2023-06-19T13:56:15;28.60;1.00
2409;DHT22;8463;48.094;7.970;2023-06-19T13:58:41;28.80;1.00
2409;DHT22;8463;48.094;7.970;2023-06-19T14:01:07;29.40;1.00
2409;DHT22;8463;48.094;7.970;2023-06-19T14:03:33;30.30;1.00
2409;DHT22;8463;48.094;7.970;2023-06-19T14:05:59;30.30;1.00
2409;DHT22;8463;48.094;7.970;2023-06-19T14:08:25;30.50;1.00
2409;DHT22;8463;48.094;7.970;2023-06-19T14:10:50;30.50;1.00
2409;DHT22;8463;48.094;7.970;2023-06-19T14:13:17;30.30;1.00
2409;DHT22;8463;48.094;7.970;2023-06-19T14:15:44;30.50;1.00
2409;DHT22;8463;48.094;7.970;2023-06-19T14:18:10;30.90;1.00
2409;DHT22;8463;48.094;7.970;2023-06-19T14:20:36;30.50;1.00
2409;DHT22;8463;48.094;7.970;2023-06-19T14:23:02;30.20;1.00
2409;DHT22;8463;48.094;7.970;2023-06-19T14:25:27;30.20;1.00
2409;DHT22;8463;48.094;7.970;2023-06-19T14:27:53;30.30;1.00
2409;DHT22;8463;48.094;7.970;2023-06-19T14:30:18;30.00;1.00
2409;DHT22;8463;48.094;7.970;2023-06-19T14:35:10;30.40;1.00
2409;DHT22;8463;48.094;7.970;2023-06-19T14:37:36;30.40;1.00
2409;DHT22;8463;48.094;7.970;2023-06-19T14:40:02;30.70;1.00
2409;DHT22;8463;48.094;7.970;2023-06-19T14:42:30;30.40;1.00
2409;DHT22;8463;48.094;7.970;2023-06-19T14:44:56;30.50;1.00
2409;DHT22;8463;48.094;7.970;2023-06-19T14:47:21;30.60;1.00
2409;DHT22;8463;48.094;7.970;2023-06-19T14:49:47;30.40;1.00
2409;DHT22;8463;48.094;7.970;2023-06-19T14:52:13;30.10;1.00
2409;DHT22;8463;48.094;7.970;2023-06-19T14:54:39;30.10;1.00
2409;DHT22;8463;48.094;7.970;2023-06-19T14:57:04;29.90;1.00
2409;DHT22;8463;48.094;7.970;2023-06-19T14:59:30;30.10;1.00
2409;DHT22;8463;48.094;7.970;2023-06-19T15:01:56;30.40;1.00
2409;DHT22;8463;48.094;7.970;2023-06-19T15:04:24;30.80;1.00
2409;DHT22;8463;48.094;7.970;2023-06-19T15:06:49;31.10;1.00
2409;DHT22;8463;48.094;7.970;2023-06-19T15:09:15;31.10;1.00
2409;DHT22;8463;48.094;7.970;2023-06-19T15:11:41;31.10;1.00
2409;DHT22;8463;48.094;7.970;2023-06-19T15:14:07;31.20;1.00
2409;DHT22;8463;48.094;7.970;2023-06-19T15:16:32;31.30;1.00
2409;DHT22;8463;48.094;7.970;2023-06-19T15:18:58;31.60;1.00
2409;DHT22;8463;48.094;7.970;2023-06-19T15:21:24;31.80;1.00
2409;DHT22;8463;48.094;7.970;2023-06-19T15:23:53;31.80;1.00
2409;DHT22;8463;48.094;7.970;2023-06-19T15:26:21;31.90;1.00
2409;DHT22;8463;48.094;7.970;2023-06-19T15:28:46;32.00;1.00
2409;DHT22;8463;48.094;7.970;2023-06-19T15:31:13;32.30;1.00
2409;DHT22;8463;48.094;7.970;2023-06-19T15:33:41;32.30;1.00
2409;DHT22;8463;48.094;7.970;2023-06-19T15:36:06;32.40;1.00
2409;DHT22;8463;48.094;7.970;2023-06-19T15:38:34;32.40;1.00
2409;DHT22;8463;48.094;7.970;2023-06-19T15:41:00;32.40;1.00
2409;DHT22;8463;48.094;7.970;2023-06-19T15:43:26;32.40;1.00
2409;DHT22;8463;48.094;7.970;2023-06-19T15:45:57;32.30;1.00
2409;DHT22;8463;48.094;7.970;2023-06-19T15:48:23;32.20;1.00
2409;DHT22;8463;48.094;7.970;2023-06-19T15:50:49;32.20;1.00
2409;DHT22;8463;48.094;7.970;2023-06-19T15:53:15;32.30;1.00
2409;DHT22;8463;48.094;7.970;2023-06-19T15:55:40;32.30;1.00
2409;DHT22;8463;48.094;7.970;2023-06-19T15:58:09;32.20;1.00
2409;DHT22;8463;48.094;7.970;2023-06-19T16:00:34;32.20;1.00
2409;DHT22;8463;48.094;7.970;2023-06-19T16:03:00;32.10;1.00
2409;DHT22;8463;48.094;7.970;2023-06-19T16:05:26;31.60;1.00
2409;DHT22;8463;48.094;7.970;2023-06-19T16:07:52;31.60;1.00
2409;DHT22;8463;48.094;7.970;2023-06-19T16:10:18;30.30;1.00
2409;DHT22;8463;48.094;7.970;2023-06-19T16:12:44;31.40;1.00
2409;DHT22;8463;48.094;7.970;2023-06-19T16:15:10;31.50;1.00
2409;DHT22;8463;48.094;7.970;2023-06-19T16:17:41;31.60;1.00
2409;DHT22;8463;48.094;7.970;2023-06-19T16:20:08;31.70;1.00
2409;DHT22;8463;48.094;7.970;2023-06-19T16:22:34;31.60;1.00
2409;DHT22;8463;48.094;7.970;2023-06-19T16:25:00;31.60;1.00